createdAt,value
2022-11-18T00:02:25.301Z,98389.78
2022-11-18T00:04:52.936Z,98378.69
2022-11-18T00:07:20.590Z,98374.47
2022-11-18T00:09:47.995Z,98372.97
2022-11-18T00:12:34.295Z,98374.47
2022-11-18T00:15:01.795Z,98379.78
2022-11-18T00:17:30.114Z,98375.38
2022-11-18T00:19:57.750Z,98376.97
2022-11-18T00:22:29.736Z,98377.37
2022-11-18T00:24:57.690Z,98377.16
2022-11-18T00:27:25.003Z,98372.19
2022-11-18T00:29:52.343Z,98369.41
2022-11-18T00:32:19.946Z,98364.09
2022-11-18T00:34:47.306Z,98356.88
2022-11-18T00:37:15.402Z,98359.63
2022-11-18T00:39:42.979Z,98363.28
2022-11-18T00:42:28.949Z,98361.03
2022-11-18T00:44:56.522Z,98352.22
2022-11-18T00:47:24.092Z,98352.22
2022-11-18T00:49:51.439Z,98359.78
2022-11-18T00:52:19.050Z,98358.81
2022-11-18T00:54:46.387Z,98362.47
2022-11-18T00:57:13.723Z,98368.97
2022-11-18T00:59:41.324Z,98369.22
2022-11-18T01:02:08.703Z,98372.66
2022-11-18T01:04:36.040Z,98366.59
2022-11-18T01:07:03.718Z,98364.53
2022-11-18T01:09:31.074Z,98364.53
2022-11-18T01:12:17.005Z,98352.47
2022-11-18T01:14:44.604Z,98343.47
2022-11-18T01:17:11.933Z,98337.53
2022-11-18T01:19:39.387Z,98337.34
2022-11-18T01:22:07.016Z,98333.03
2022-11-18T01:24:34.423Z,98328.94
2022-11-18T01:27:01.818Z,98328.19
2022-11-18T01:29:29.514Z,98316.72
2022-11-18T01:32:22.758Z,98314.28
2022-11-18T01:34:44.444Z,98314.84
2022-11-18T01:37:12.089Z,98315.69
2022-11-18T01:39:39.400Z,98319.56
2022-11-18T01:42:16.429Z,98324.87
2022-11-18T01:45:22.921Z,98330.00
2022-11-18T01:47:58.182Z,98327.31
2022-11-18T01:50:25.499Z,98322.44
2022-11-18T01:52:53.646Z,98340.37
2022-11-18T01:55:24.853Z,98353.75
2022-11-18T01:57:52.324Z,98359.91
2022-11-18T02:00:19.958Z,98353.22
2022-11-18T02:02:47.642Z,98353.25
2022-11-18T02:05:14.999Z,98347.75
2022-11-18T02:07:43.171Z,98347.09
2022-11-18T02:10:20.146Z,98339.16
2022-11-18T02:12:48.768Z,98334.03
2022-11-18T02:15:17.568Z,98321.63
2022-11-18T02:18:04.194Z,98319.13
2022-11-18T02:20:42.402Z,98319.78
2022-11-18T02:23:35.667Z,98325.31
2022-11-18T02:26:13.611Z,98314.25
2022-11-18T02:29:04.692Z,98310.56
2022-11-18T02:31:35.395Z,98306.84
2022-11-18T02:34:31.347Z,98298.50
2022-11-18T02:36:58.764Z,98291.50
2022-11-18T02:39:35.092Z,98286.78
2022-11-18T02:42:03.541Z,98275.34
2022-11-18T02:44:30.791Z,98261.75
2022-11-18T02:47:00.281Z,98264.53
2022-11-18T02:49:37.012Z,98256.37
2022-11-18T02:52:04.805Z,98255.87
2022-11-18T02:54:33.032Z,98252.41
2022-11-18T02:57:00.331Z,98260.38
2022-11-18T02:59:27.965Z,98257.59
2022-11-18T03:01:55.607Z,98265.13
2022-11-18T03:04:22.951Z,98269.19
2022-11-18T03:07:11.145Z,98260.97
2022-11-18T03:09:39.960Z,98266.47
2022-11-18T03:12:26.026Z,98272.13
2022-11-18T03:14:57.987Z,98283.63
2022-11-18T03:17:33.215Z,98291.63
2022-11-18T03:20:07.822Z,98291.38
2022-11-18T03:22:56.418Z,98291.00
2022-11-18T03:25:36.969Z,98292.63
2022-11-18T03:28:33.275Z,98293.00
2022-11-18T03:31:05.658Z,98298.75
2022-11-18T03:33:35.584Z,98307.63
2022-11-18T03:36:05.202Z,98302.81
2022-11-18T03:38:35.016Z,98290.19
2022-11-18T03:41:04.326Z,98302.78
2022-11-18T03:43:34.623Z,98302.81
2022-11-18T03:46:20.421Z,98305.66
2022-11-18T03:48:52.365Z,98308.53
2022-11-18T03:51:22.818Z,98316.63
2022-11-18T03:53:57.129Z,98311.34
2022-11-18T03:56:28.320Z,98301.94
2022-11-18T03:59:10.305Z,98295.25
2022-11-18T04:01:41.353Z,98279.00
2022-11-18T04:04:09.006Z,98283.97
2022-11-18T04:06:45.702Z,98283.28
2022-11-18T04:09:28.767Z,98273.41
2022-11-18T04:12:03.084Z,98264.84
2022-11-18T04:14:38.439Z,98262.56
2022-11-18T04:17:10.452Z,98241.47
2022-11-18T04:19:38.081Z,98230.75
2022-11-18T04:22:05.515Z,98223.75
2022-11-18T04:24:32.872Z,98225.84
2022-11-18T04:27:00.513Z,98231.28
2022-11-18T04:29:27.847Z,98213.19
2022-11-18T04:31:55.188Z,98226.59
2022-11-18T04:34:22.790Z,98214.88
2022-11-18T04:36:50.121Z,98218.94
2022-11-18T04:39:18.415Z,98224.50
2022-11-18T04:41:58.276Z,98218.72
2022-11-18T04:44:29.927Z,98237.22
2022-11-18T04:46:58.300Z,98239.97
2022-11-18T04:49:25.755Z,98245.94
2022-11-18T04:51:53.132Z,98245.56
2022-11-18T04:54:20.898Z,98256.34
2022-11-18T04:56:49.740Z,98253.63
2022-11-18T04:59:19.113Z,98250.09
2022-11-18T05:01:47.385Z,98257.81
2022-11-18T05:04:16.073Z,98251.41
2022-11-18T05:06:43.393Z,98246.91
2022-11-18T05:09:11.050Z,98241.44
2022-11-18T05:11:57.181Z,98231.22
2022-11-18T05:14:27.632Z,98235.28
2022-11-18T05:16:55.240Z,98230.25
2022-11-18T05:19:22.722Z,98219.22
2022-11-18T05:21:50.365Z,98213.03
2022-11-18T05:24:17.814Z,98222.03
2022-11-18T05:26:45.151Z,98224.66
2022-11-18T05:29:13.133Z,98229.97
2022-11-18T05:31:40.497Z,98220.84
2022-11-18T05:34:07.859Z,98217.00
2022-11-18T05:36:35.451Z,98224.75
2022-11-18T05:39:02.928Z,98227.00
2022-11-18T05:41:48.825Z,98235.66
2022-11-18T05:44:16.574Z,98235.22
2022-11-18T05:46:43.909Z,98228.91
2022-11-18T05:49:11.267Z,98226.13
2022-11-18T05:51:38.878Z,98231.47
2022-11-18T05:54:08.190Z,98228.47
2022-11-18T05:56:40.171Z,98232.84
2022-11-18T05:59:07.843Z,98229.16
2022-11-18T06:01:36.555Z,98238.28
2022-11-18T06:04:07.128Z,98241.09
2022-11-18T06:06:35.186Z,98238.91
2022-11-18T06:09:04.047Z,98236.50
2022-11-18T06:11:33.026Z,98237.41
2022-11-18T06:14:12.370Z,98230.66
2022-11-18T06:16:41.076Z,98235.34
2022-11-18T06:19:08.807Z,98225.16
2022-11-18T06:21:36.180Z,98223.28
2022-11-18T06:24:04.006Z,98218.03
2022-11-18T06:26:31.328Z,98211.69
2022-11-18T06:28:58.673Z,98221.16
2022-11-18T06:31:26.263Z,98211.72
2022-11-18T06:33:53.553Z,98213.16
2022-11-18T06:36:20.905Z,98213.03
2022-11-18T06:38:48.520Z,98211.59
2022-11-18T06:41:15.890Z,98204.78
2022-11-18T06:43:43.218Z,98209.50
2022-11-18T06:46:31.242Z,98222.31
2022-11-18T06:48:58.653Z,98222.16
2022-11-18T06:51:27.351Z,98221.56
2022-11-18T06:53:54.742Z,98220.62
2022-11-18T06:56:22.311Z,98230.75
2022-11-18T06:58:54.371Z,98226.03
2022-11-18T07:01:23.378Z,98219.34
2022-11-18T07:03:51.101Z,98219.66
2022-11-18T07:06:22.847Z,98217.41
2022-11-18T07:08:50.456Z,98228.84
2022-11-18T07:11:20.344Z,98228.16
2022-11-18T07:13:47.922Z,98219.56
2022-11-18T07:16:19.831Z,98205.75
2022-11-18T07:18:48.159Z,98207.88
2022-11-18T07:21:36.532Z,98199.03
2022-11-18T07:24:05.895Z,98195.09
2022-11-18T07:26:33.841Z,98191.84
2022-11-18T07:29:01.516Z,98197.56
2022-11-18T07:31:29.166Z,98199.91
2022-11-18T07:33:56.564Z,98200.09
2022-11-18T07:36:28.618Z,98200.69
2022-11-18T07:38:59.510Z,98203.69
2022-11-18T07:41:28.322Z,98207.66
2022-11-18T07:44:00.306Z,98202.47
2022-11-18T07:46:33.748Z,98198.03
2022-11-18T07:49:02.046Z,98193.75
2022-11-18T07:51:31.108Z,98190.09
2022-11-18T07:53:58.939Z,98185.19
2022-11-18T07:56:30.834Z,98183.69
2022-11-18T07:59:00.236Z,98191.72
2022-11-18T08:01:29.734Z,98189.56
2022-11-18T08:03:58.362Z,98182.34
2022-11-18T08:06:25.762Z,98185.28
2022-11-18T08:08:53.114Z,98188.72
2022-11-18T08:11:22.968Z,98190.00
2022-11-18T08:13:51.505Z,98182.19
2022-11-18T08:16:20.512Z,98168.44
2022-11-18T08:18:48.151Z,98179.81
2022-11-18T08:21:16.083Z,98168.22
2022-11-18T08:23:43.563Z,98169.63
2022-11-18T08:26:13.883Z,98166.78
2022-11-18T08:28:42.652Z,98158.22
2022-11-18T08:31:20.169Z,98166.03
2022-11-18T08:33:48.111Z,98172.59
2022-11-18T08:36:17.124Z,98160.94
2022-11-18T08:38:44.560Z,98154.06
2022-11-18T08:41:16.801Z,98148.22
2022-11-18T08:43:44.125Z,98141.59
2022-11-18T08:46:11.737Z,98140.25
2022-11-18T08:48:39.093Z,98143.56
2022-11-18T08:51:06.568Z,98136.66
2022-11-18T08:53:34.172Z,98130.00
2022-11-18T08:56:01.538Z,98130.56
2022-11-18T08:58:28.928Z,98137.94
2022-11-18T09:00:56.560Z,98136.44
2022-11-18T09:03:23.940Z,98131.28
2022-11-18T09:05:51.271Z,98135.78
2022-11-18T09:08:19.927Z,98144.69
2022-11-18T09:10:47.307Z,98150.16
2022-11-18T09:16:02.419Z,98160.00
2022-11-18T09:18:29.970Z,98155.72
2022-11-18T09:20:57.985Z,98145.31
2022-11-18T09:23:25.605Z,98137.62
2022-11-18T09:25:59.414Z,98133.13
2022-11-18T09:28:27.058Z,98138.91
2022-11-18T09:30:55.061Z,98116.72
2022-11-18T09:33:22.835Z,98117.66
2022-11-18T09:35:50.434Z,98119.00
2022-11-18T09:38:17.803Z,98114.44
2022-11-18T09:41:04.025Z,98122.03
2022-11-18T09:44:06.110Z,98124.06
2022-11-18T09:46:54.854Z,98117.13
2022-11-18T09:49:39.428Z,98111.97
2022-11-18T09:52:12.739Z,98106.78
2022-11-18T09:54:40.421Z,98095.28
2022-11-18T09:57:33.521Z,98092.12
2022-11-18T10:00:01.247Z,98089.78
2022-11-18T10:02:46.846Z,98062.53
2022-11-18T10:05:19.984Z,98069.62
2022-11-18T10:08:12.419Z,98062.66
2022-11-18T10:11:06.065Z,98068.13
2022-11-18T10:13:57.684Z,98068.66
2022-11-18T10:16:45.989Z,98076.94
2022-11-18T10:19:25.320Z,98077.44
2022-11-18T10:22:32.072Z,98076.84
2022-11-18T10:25:00.901Z,98067.88
2022-11-18T10:27:40.087Z,98058.91
2022-11-18T10:30:22.195Z,98065.41
2022-11-18T10:33:22.274Z,98067.13
2022-11-18T10:35:49.779Z,98057.97
2022-11-18T10:38:18.719Z,98058.81
2022-11-18T10:41:05.671Z,98057.47
2022-11-18T10:43:51.480Z,98053.06
2022-11-18T10:46:28.997Z,98050.87
2022-11-18T10:49:08.810Z,98056.50
2022-11-18T10:51:46.451Z,98047.94
2022-11-18T10:54:21.543Z,98044.22
2022-11-18T10:57:03.607Z,98044.94
2022-11-18T10:59:41.598Z,98050.75
2022-11-18T11:02:23.731Z,98049.37
2022-11-18T11:04:51.602Z,98046.75
2022-11-18T11:07:35.824Z,98045.47
2022-11-18T11:10:20.977Z,98047.53
2022-11-18T11:13:15.264Z,98050.91
2022-11-18T11:15:46.866Z,98064.78
2022-11-18T11:18:41.050Z,98053.75
2022-11-18T11:21:15.828Z,98066.59
2022-11-18T11:23:43.194Z,98066.78
2022-11-18T11:29:37.946Z,98073.75
2022-11-18T11:32:47.266Z,98068.47
2022-11-18T11:35:17.573Z,98066.47
2022-11-18T11:38:06.948Z,98060.50
2022-11-18T11:40:59.490Z,98061.59
2022-11-18T11:43:32.738Z,98054.53
2022-11-18T11:46:19.268Z,98049.97
2022-11-18T11:49:06.499Z,98053.97
2022-11-18T11:51:55.079Z,98061.88
2022-11-18T11:55:00.327Z,98057.16
2022-11-18T11:57:50.064Z,98051.19
2022-11-18T12:00:18.741Z,98043.19
2022-11-18T12:02:46.315Z,98049.59
2022-11-18T12:05:23.580Z,98044.44
2022-11-18T12:08:27.813Z,98064.50
2022-11-18T12:11:07.282Z,98050.22
2022-11-18T12:13:34.741Z,98052.00
2022-11-18T12:16:22.208Z,98043.50
2022-11-18T12:18:57.903Z,98041.84
2022-11-18T12:21:44.711Z,98042.03
2022-11-18T12:24:18.000Z,98034.50
2022-11-18T12:26:46.417Z,98040.88
2022-11-18T12:29:20.162Z,98026.59
2022-11-18T12:31:49.169Z,98011.44
2022-11-18T12:34:25.705Z,98017.03
2022-11-18T12:36:53.613Z,98014.06
2022-11-18T12:39:30.165Z,98013.19
2022-11-18T12:42:20.411Z,98003.47
2022-11-18T12:44:51.777Z,98014.16
2022-11-18T12:47:41.136Z,98010.50
2022-11-18T12:50:13.649Z,98018.84
2022-11-18T12:52:40.810Z,98018.66
2022-11-18T12:55:26.134Z,98018.69
2022-11-18T12:57:53.767Z,98029.06
2022-11-18T13:00:24.060Z,98029.97
2022-11-18T13:02:52.390Z,98034.13
2022-11-18T13:05:21.867Z,98037.41
2022-11-18T13:08:14.370Z,98047.19
2022-11-18T13:10:54.754Z,98048.38
2022-11-18T13:13:26.338Z,98060.22
2022-11-18T13:16:14.008Z,98059.94
2022-11-18T13:18:51.546Z,98055.03
2022-11-18T13:21:42.527Z,98050.66
2022-11-18T13:24:19.462Z,98062.81
2022-11-18T13:26:47.993Z,98060.62
2022-11-18T13:29:37.248Z,98067.81
2022-11-18T13:32:24.248Z,98069.31
2022-11-18T13:34:55.660Z,98068.47
2022-11-18T13:37:24.082Z,98068.59
2022-11-18T13:39:51.540Z,98071.66
2022-11-18T13:42:26.238Z,98068.28
2022-11-18T13:44:58.718Z,98072.06
2022-11-18T13:47:38.829Z,98072.78
2022-11-18T13:50:22.708Z,98069.19
2022-11-18T13:53:05.169Z,98066.13
2022-11-18T13:55:41.590Z,98062.75
2022-11-18T13:58:17.864Z,98061.19
2022-11-18T14:01:00.866Z,98055.06
2022-11-18T14:03:34.571Z,98046.09
2022-11-18T14:06:02.610Z,98053.53
2022-11-18T14:08:33.742Z,98053.69
2022-11-18T14:11:01.204Z,98055.72
2022-11-18T14:13:47.801Z,98059.19
2022-11-18T14:16:17.967Z,98064.91
2022-11-18T14:18:46.484Z,98069.31
2022-11-18T14:21:13.940Z,98060.06
2022-11-18T14:23:42.849Z,98079.41
2022-11-18T14:26:10.210Z,98077.63
2022-11-18T14:28:37.954Z,98073.59
2022-11-18T14:31:27.226Z,98075.31
2022-11-18T14:34:18.660Z,98077.44
2022-11-18T14:36:46.316Z,98071.94
2022-11-18T14:39:29.031Z,98066.72
2022-11-18T14:41:56.867Z,98070.22
2022-11-18T14:44:25.716Z,98066.00
2022-11-18T14:47:03.926Z,98064.19
2022-11-18T14:49:32.673Z,98062.97
2022-11-18T14:52:02.711Z,98064.25
2022-11-18T14:54:30.542Z,98059.00
2022-11-18T14:57:00.916Z,98065.09
2022-11-18T14:59:28.219Z,98071.72
2022-11-18T15:01:56.672Z,98064.78
2022-11-18T15:04:25.286Z,98062.91
2022-11-18T15:06:52.708Z,98059.22
2022-11-18T15:09:20.027Z,98062.00
2022-11-18T15:11:47.818Z,98068.97
2022-11-18T15:14:15.203Z,98069.19
2022-11-18T15:16:42.766Z,98069.38
2022-11-18T15:19:13.713Z,98073.09
2022-11-18T15:21:41.051Z,98070.38
2022-11-18T15:24:08.419Z,98069.22
2022-11-18T15:26:38.872Z,98062.53
2022-11-18T15:29:06.270Z,98069.56
2022-11-18T15:31:33.740Z,98078.53
2022-11-18T15:34:06.535Z,98076.44
2022-11-18T15:36:34.388Z,98072.19
2022-11-18T15:39:01.968Z,98077.66
2022-11-18T15:41:29.980Z,98075.50
2022-11-18T15:43:58.129Z,98075.06
2022-11-18T15:46:26.363Z,98075.41
2022-11-18T15:48:59.948Z,98085.03
2022-11-18T15:51:28.973Z,98081.13
2022-11-18T15:53:56.495Z,98081.13
2022-11-18T15:56:23.674Z,98082.91
2022-11-18T15:59:04.387Z,98086.09
2022-11-18T16:01:35.860Z,98101.88
2022-11-18T16:04:05.786Z,98092.03
2022-11-18T16:06:33.105Z,98094.13
2022-11-18T16:09:00.785Z,98099.22
2022-11-18T16:11:47.815Z,98099.97
2022-11-18T16:14:17.411Z,98098.28
2022-11-18T16:16:46.066Z,98098.28
2022-11-18T16:19:15.386Z,98089.72
2022-11-18T16:21:46.948Z,98095.06
2022-11-18T16:24:16.951Z,98094.59
2022-11-18T16:26:44.631Z,98095.00
2022-11-18T16:29:12.375Z,98095.94
2022-11-18T16:31:40.084Z,98101.66
2022-11-18T16:34:17.663Z,98097.47
2022-11-18T16:36:47.018Z,98107.59
2022-11-18T16:39:16.074Z,98116.38
2022-11-18T16:41:44.295Z,98114.44
2022-11-18T16:44:15.335Z,98118.06
2022-11-18T16:46:47.183Z,98111.75
2022-11-18T16:49:15.891Z,98118.06
2022-11-18T16:51:44.525Z,98117.41
2022-11-18T16:54:17.181Z,98116.72
2022-11-18T16:56:44.982Z,98116.03
2022-11-18T16:59:15.997Z,98118.41
2022-11-18T17:01:43.743Z,98127.75
2022-11-18T17:04:14.140Z,98122.62
2022-11-18T17:06:41.513Z,98126.03
2022-11-18T17:09:13.190Z,98126.13
2022-11-18T17:11:40.895Z,98135.09
2022-11-18T17:14:08.281Z,98139.22
2022-11-18T17:16:38.650Z,98140.22
2022-11-18T17:19:11.652Z,98147.53
2022-11-18T17:21:39.373Z,98152.16
2022-11-18T17:24:07.713Z,98148.97
2022-11-18T17:26:35.107Z,98154.13
2022-11-18T17:29:02.437Z,98155.00
2022-11-18T17:31:30.039Z,98153.03
2022-11-18T17:33:57.461Z,98156.47
2022-11-18T17:36:26.107Z,98149.44
2022-11-18T17:38:55.520Z,98159.75
2022-11-18T17:41:42.932Z,98161.78
2022-11-18T17:44:11.871Z,98175.44
2022-11-18T17:46:39.290Z,98175.88
2022-11-18T17:49:14.236Z,98173.41
2022-11-18T17:51:41.909Z,98181.19
2022-11-18T17:54:09.759Z,98187.28
2022-11-18T17:56:37.147Z,98183.62
2022-11-18T17:59:04.807Z,98184.44
2022-11-18T18:01:32.186Z,98191.34
2022-11-18T18:03:59.801Z,98190.97
2022-11-18T18:06:27.101Z,98195.41
2022-11-18T18:08:57.977Z,98192.81
2022-11-18T18:11:25.605Z,98196.28
2022-11-18T18:14:11.827Z,98201.56
2022-11-18T18:16:49.731Z,98203.53
2022-11-18T18:19:19.083Z,98207.69
2022-11-18T18:21:46.727Z,98212.47
2022-11-18T18:24:16.393Z,98216.87
2022-11-18T18:26:43.949Z,98217.06
2022-11-18T18:29:12.007Z,98214.00
2022-11-18T18:31:39.396Z,98220.72
2022-11-18T18:34:06.776Z,98220.56
2022-11-18T18:36:34.532Z,98212.38
2022-11-18T18:39:02.559Z,98219.13
2022-11-18T18:41:30.186Z,98226.84
2022-11-18T18:43:57.823Z,98229.28
2022-11-18T18:46:28.729Z,98227.66
2022-11-18T18:49:00.766Z,98236.06
2022-11-18T18:51:30.234Z,98237.47
2022-11-18T18:53:58.377Z,98244.81
2022-11-18T18:56:25.773Z,98246.44
2022-11-18T18:58:53.559Z,98237.91
2022-11-18T19:01:21.015Z,98246.66
2022-11-18T19:03:48.412Z,98252.16
2022-11-18T19:09:12.792Z,98255.19
2022-11-18T19:11:59.478Z,98259.72
2022-11-18T19:14:28.085Z,98264.03
2022-11-18T19:16:55.794Z,98269.28
2022-11-18T19:19:43.653Z,98271.31
2022-11-18T19:22:12.325Z,98280.75
2022-11-18T19:24:55.380Z,98285.00
2022-11-18T19:27:23.353Z,98297.34
2022-11-18T19:29:50.698Z,98288.75
2022-11-18T19:32:18.166Z,98289.00
2022-11-18T19:34:45.750Z,98297.88
2022-11-18T19:37:13.054Z,98285.81
2022-11-18T19:39:40.366Z,98302.81
2022-11-18T19:42:07.960Z,98307.84
2022-11-18T19:44:35.250Z,98312.81
2022-11-18T19:47:02.611Z,98323.16
2022-11-18T19:49:30.237Z,98329.41
2022-11-18T19:51:57.543Z,98326.75
2022-11-18T19:54:24.853Z,98332.47
2022-11-18T19:56:52.429Z,98338.91
2022-11-18T19:59:19.996Z,98343.50
2022-11-18T20:01:47.627Z,98352.50
2022-11-18T20:04:15.259Z,98353.22
2022-11-18T20:06:42.608Z,98362.97
2022-11-18T20:09:10.119Z,98359.41
2022-11-18T20:11:38.474Z,98372.41
2022-11-18T20:14:06.561Z,98368.13
2022-11-18T20:16:34.410Z,98374.84
2022-11-18T20:19:07.820Z,98382.44
2022-11-18T20:21:35.315Z,98379.66
2022-11-18T20:24:03.981Z,98387.75
2022-11-18T20:26:35.337Z,98401.09
2022-11-18T20:29:02.980Z,98409.97
2022-11-18T20:31:30.372Z,98408.03
2022-11-18T20:33:57.732Z,98412.06
2022-11-18T20:36:30.590Z,98419.50
2022-11-18T20:39:05.489Z,98422.78
2022-11-18T20:41:33.253Z,98426.19
2022-11-18T20:44:00.687Z,98427.44
2022-11-18T20:46:28.106Z,98446.59
2022-11-18T20:48:55.896Z,98441.62
2022-11-18T20:51:24.570Z,98449.34
2022-11-18T20:53:52.337Z,98465.28
2022-11-18T20:56:21.284Z,98455.25
2022-11-18T20:58:48.645Z,98459.75
2022-11-18T21:01:20.442Z,98477.37
2022-11-18T21:03:54.763Z,98478.47
2022-11-18T21:06:23.104Z,98491.41
2022-11-18T21:08:54.512Z,98491.50
2022-11-18T21:11:21.851Z,98492.53
2022-11-18T21:14:08.035Z,98501.81
2022-11-18T21:16:35.477Z,98516.13
2022-11-18T21:19:04.585Z,98518.59
2022-11-18T21:21:52.687Z,98521.94
2022-11-18T21:24:26.854Z,98527.72
2022-11-18T21:26:57.895Z,98530.09
2022-11-18T21:29:27.291Z,98533.56
2022-11-18T21:31:54.636Z,98548.69
2022-11-18T21:34:22.051Z,98549.19
2022-11-18T21:36:54.351Z,98551.06
2022-11-18T21:39:23.992Z,98561.19
2022-11-18T21:41:55.830Z,98564.31
2022-11-18T21:44:23.947Z,98565.56
2022-11-18T21:46:51.954Z,98573.69
2022-11-18T21:49:19.655Z,98579.75
2022-11-18T21:51:47.090Z,98582.94
2022-11-18T21:54:15.940Z,98586.53
2022-11-18T21:56:43.466Z,98577.47
2022-11-18T21:59:10.801Z,98588.31
2022-11-18T22:01:38.400Z,98590.19
2022-11-18T22:04:06.026Z,98589.28
2022-11-18T22:06:34.154Z,98589.84
2022-11-18T22:09:02.225Z,98593.50
2022-11-18T22:11:29.946Z,98595.41
2022-11-18T22:13:57.939Z,98604.25
2022-11-18T22:16:25.516Z,98593.06
2022-11-18T22:18:59.131Z,98593.69
2022-11-18T22:21:28.700Z,98599.97
2022-11-18T22:23:57.929Z,98604.81
2022-11-18T22:26:25.325Z,98613.25
2022-11-18T22:28:53.550Z,98608.78
2022-11-18T22:31:22.049Z,98613.00
2022-11-18T22:33:50.260Z,98614.22
2022-11-18T22:36:19.083Z,98615.03
2022-11-18T22:38:46.815Z,98621.25
2022-11-18T22:41:36.856Z,98626.72
2022-11-18T22:44:07.644Z,98634.00
2022-11-18T22:46:36.195Z,98626.44
2022-11-18T22:49:04.327Z,98639.28
2022-11-18T22:51:31.824Z,98642.91
2022-11-18T22:56:46.771Z,98663.25
2022-11-18T22:59:14.277Z,98651.09
2022-11-18T23:01:41.653Z,98643.87
2022-11-18T23:04:09.327Z,98650.75
2022-11-18T23:06:36.639Z,98640.91
2022-11-18T23:09:04.038Z,98652.44
2022-11-18T23:11:50.626Z,98645.34
2022-11-18T23:14:17.961Z,98637.59
2022-11-18T23:16:45.587Z,98639.19
2022-11-18T23:19:14.307Z,98640.91
2022-11-18T23:21:41.894Z,98647.16
2022-11-18T23:24:17.141Z,98645.00
2022-11-18T23:26:44.631Z,98645.16
2022-11-18T23:29:13.046Z,98651.94
2022-11-18T23:31:43.901Z,98649.41
2022-11-18T23:34:12.245Z,98665.59
2022-11-18T23:36:40.120Z,98669.84
2022-11-18T23:39:07.520Z,98680.22
2022-11-18T23:41:34.834Z,98687.31
2022-11-18T23:44:02.416Z,98685.03
2022-11-18T23:46:29.878Z,98697.87
2022-11-18T23:48:57.223Z,98693.75
2022-11-18T23:51:25.008Z,98697.53
2022-11-18T23:53:54.040Z,98693.75
2022-11-18T23:56:22.625Z,98694.38
2022-11-18T23:58:51.514Z,98698.66
